Dagomys, Russia
Current Conditions -  °F | °C
As of 9:00 PM on Thursday 23 Oct 2014 (Local Time) from URSS Reporting Station
Overcast Overcast  
Wind Chill: 61°   Ceiling: 21000
Heat Index: 61°   Visibility: 6mi
Dew Point: 48°   Wind: 4mph
Humidity: 63%   Direction: 60°ENE
Pressure: 29.88"   Gusts: NA
Location:  43.67°N, 39.63°E
Report Text: URSS 231800Z 06002MPS 030V100 9999 OVC210 16/09 Q1012 NOSIG RMKR02/05004MPS QFE758 06000070 02000070
Loading
Personal Weather Stations






























Interactive Weather Map
Tropical Storm Tracking
New forecast layout! Learn more

10-Day Weather Forecast

Advertisements
Track Severe Weather on mobile